KISW/ISW METAR and TAF weather

Enter ICAO airport designator
Station Type Date Time Source
KISW METAR 2022/01/19 20:54 UTC NOAA

KISW 192054Z AUTO 32015G24KT 10SM BKN030 M13/M19 A3024 RMK AO2 SLP262 T11281194 53023


Station Type Date Time Source
KISW Decoded METAR 2022/01/19 20:54 UTC NOAA

WI RAPIDS ALEXANDER FIELD, WI, United States (KISW) 44-22N 89-50W 307M
Jan 19, 2022 - 03:54 PM EST / 2022.01.19 2054 UTC
Wind: from the NW (320 degrees) at 17 MPH (15 KT) gusting to 28 MPH (24 KT):0
Visibility: 10 mile(s):0
Sky conditions: mostly cloudy
Temperature: 9.0 F (-12.8 C)
Windchill: -9 F (-23 C):2
Dew Point: -2.9 F (-19.4 C)
Relative Humidity: 57%
Pressure (altimeter): 30.24 in. Hg (1024 hPa)
Pressure tendency: 0.07 inches (2.3 hPa) higher than three hours ago
ob: KISW 192054Z AUTO 32015G24KT 10SM BKN030 M13/M19 A3024 RMK AO2 SLP262 T11281194 53023
cycle: 21

Station Type Date Time Source
KISW TAF UTC NOAA

Error!

Example: see airport list